sensor_id;sensor_type;location;lat;lon;timestamp;P1;durP1;ratioP1;P2;durP2;ratioP2
67248;SDS011;63247;54.300;18.592;2023-08-30T00:00:04;42.50;;;17.60;;
67248;SDS011;63247;54.300;18.592;2023-08-30T00:02:29;39.00;;;17.38;;
67248;SDS011;63247;54.300;18.592;2023-08-30T00:05:02;44.30;;;17.93;;
67248;SDS011;63247;54.300;18.592;2023-08-30T00:07:28;47.60;;;18.23;;
67248;SDS011;63247;54.300;18.592;2023-08-30T00:09:53;44.17;;;18.27;;
67248;SDS011;63247;54.300;18.592;2023-08-30T00:12:18;52.13;;;19.67;;
67248;SDS011;63247;54.300;18.592;2023-08-30T00:14:44;53.75;;;19.73;;
67248;SDS011;63247;54.300;18.592;2023-08-30T00:17:09;52.40;;;20.00;;
67248;SDS011;63247;54.300;18.592;2023-08-30T00:19:35;56.00;;;20.40;;
67248;SDS011;63247;54.300;18.592;2023-08-30T00:22:00;51.63;;;19.27;;
67248;SDS011;63247;54.300;18.592;2023-08-30T00:24:26;54.43;;;20.27;;
67248;SDS011;63247;54.300;18.592;2023-08-30T00:26:51;58.47;;;20.27;;
67248;SDS011;63247;54.300;18.592;2023-08-30T00:29:17;56.20;;;19.90;;
67248;SDS011;63247;54.300;18.592;2023-08-30T00:31:42;58.53;;;19.83;;
67248;SDS011;63247;54.300;18.592;2023-08-30T00:34:07;63.20;;;20.73;;
67248;SDS011;63247;54.300;18.592;2023-08-30T00:36:33;64.18;;;21.15;;
67248;SDS011;63247;54.300;18.592;2023-08-30T00:38:58;67.17;;;20.83;;
67248;SDS011;63247;54.300;18.592;2023-08-30T00:41:23;70.53;;;20.37;;
67248;SDS011;63247;54.300;18.592;2023-08-30T00:43:49;70.70;;;20.87;;
67248;SDS011;63247;54.300;18.592;2023-08-30T00:46:14;68.60;;;20.53;;
67248;SDS011;63247;54.300;18.592;2023-08-30T00:48:41;69.85;;;20.50;;
67248;SDS011;63247;54.300;18.592;2023-08-30T00:51:06;68.77;;;21.23;;
67248;SDS011;63247;54.300;18.592;2023-08-30T00:53:32;76.10;;;21.67;;
67248;SDS011;63247;54.300;18.592;2023-08-30T00:55:57;69.17;;;20.63;;
67248;SDS011;63247;54.300;18.592;2023-08-30T00:58:23;74.10;;;21.40;;
67248;SDS011;63247;54.300;18.592;2023-08-30T01:00:51;75.70;;;21.17;;
67248;SDS011;63247;54.300;18.592;2023-08-30T01:03:17;69.97;;;19.27;;
67248;SDS011;63247;54.300;18.592;2023-08-30T01:05:42;70.53;;;19.90;;
67248;SDS011;63247;54.300;18.592;2023-08-30T01:08:08;73.43;;;19.53;;
67248;SDS011;63247;54.300;18.592;2023-08-30T01:10:57;81.80;;;20.97;;
67248;SDS011;63247;54.300;18.592;2023-08-30T01:13:25;85.45;;;20.98;;
67248;SDS011;63247;54.300;18.592;2023-08-30T01:15:55;80.38;;;19.02;;
67248;SDS011;63247;54.300;18.592;2023-08-30T01:18:22;79.17;;;18.90;;
67248;SDS011;63247;54.300;18.592;2023-08-30T01:20:52;82.25;;;19.55;;
67248;SDS011;63247;54.300;18.592;2023-08-30T01:26:14;79.05;;;18.95;;
67248;SDS011;63247;54.300;18.592;2023-08-30T01:28:49;64.88;;;18.83;;
67248;SDS011;63247;54.300;18.592;2023-08-30T01:31:16;62.43;;;19.13;;
67248;SDS011;63247;54.300;18.592;2023-08-30T01:33:43;61.38;;;18.38;;
67248;SDS011;63247;54.300;18.592;2023-08-30T01:36:09;59.05;;;18.75;;
67248;SDS011;63247;54.300;18.592;2023-08-30T01:38:35;58.53;;;19.07;;
67248;SDS011;63247;54.300;18.592;2023-08-30T01:41:02;50.55;;;18.00;;
67248;SDS011;63247;54.300;18.592;2023-08-30T01:43:29;44.60;;;16.80;;
67248;SDS011;63247;54.300;18.592;2023-08-30T01:45:56;36.78;;;14.88;;
67248;SDS011;63247;54.300;18.592;2023-08-30T01:48:24;34.33;;;14.52;;
67248;SDS011;63247;54.300;18.592;2023-08-30T01:50:50;29.30;;;13.27;;
67248;SDS011;63247;54.300;18.592;2023-08-30T01:53:16;31.98;;;13.27;;
67248;SDS011;63247;54.300;18.592;2023-08-30T01:55:42;30.23;;;13.10;;
67248;SDS011;63247;54.300;18.592;2023-08-30T01:58:08;31.33;;;12.90;;
67248;SDS011;63247;54.300;18.592;2023-08-30T02:00:34;28.42;;;12.68;;
67248;SDS011;63247;54.300;18.592;2023-08-30T02:03:09;31.33;;;12.48;;
67248;SDS011;63247;54.300;18.592;2023-08-30T02:05:59;32.45;;;13.13;;
67248;SDS011;63247;54.300;18.592;2023-08-30T02:08:35;29.52;;;12.60;;
67248;SDS011;63247;54.300;18.592;2023-08-30T02:11:24;34.13;;;13.77;;
67248;SDS011;63247;54.300;18.592;2023-08-30T02:13:52;30.05;;;12.95;;
67248;SDS011;63247;54.300;18.592;2023-08-30T02:16:19;29.40;;;12.40;;
67248;SDS011;63247;54.300;18.592;2023-08-30T02:18:46;27.27;;;12.02;;
67248;SDS011;63247;54.300;18.592;2023-08-30T02:21:13;26.92;;;11.60;;
67248;SDS011;63247;54.300;18.592;2023-08-30T02:23:38;26.50;;;11.37;;
67248;SDS011;63247;54.300;18.592;2023-08-30T02:26:03;26.73;;;11.17;;
67248;SDS011;63247;54.300;18.592;2023-08-30T02:28:29;23.73;;;10.30;;
67248;SDS011;63247;54.300;18.592;2023-08-30T02:30:54;23.43;;;10.30;;
67248;SDS011;63247;54.300;18.592;2023-08-30T02:33:19;24.45;;;9.93;;
67248;SDS011;63247;54.300;18.592;2023-08-30T02:35:45;23.87;;;10.47;;
67248;SDS011;63247;54.300;18.592;2023-08-30T02:38:10;25.17;;;10.60;;
67248;SDS011;63247;54.300;18.592;2023-08-30T02:40:36;21.60;;;9.57;;
67248;SDS011;63247;54.300;18.592;2023-08-30T02:43:01;20.87;;;10.00;;
67248;SDS011;63247;54.300;18.592;2023-08-30T02:45:26;23.80;;;9.88;;
67248;SDS011;63247;54.300;18.592;2023-08-30T02:47:54;22.13;;;9.40;;
67248;SDS011;63247;54.300;18.592;2023-08-30T02:50:21;22.75;;;10.00;;
67248;SDS011;63247;54.300;18.592;2023-08-30T02:52:47;19.20;;;7.90;;
67248;SDS011;63247;54.300;18.592;2023-08-30T02:55:12;19.00;;;8.73;;
67248;SDS011;63247;54.300;18.592;2023-08-30T02:57:38;17.13;;;8.27;;
67248;SDS011;63247;54.300;18.592;2023-08-30T03:00:03;18.02;;;8.40;;
67248;SDS011;63247;54.300;18.592;2023-08-30T03:02:31;16.25;;;8.15;;
67248;SDS011;63247;54.300;18.592;2023-08-30T03:04:57;17.30;;;7.75;;
67248;SDS011;63247;54.300;18.592;2023-08-30T03:07:24;14.43;;;7.53;;
67248;SDS011;63247;54.300;18.592;2023-08-30T03:09:52;19.07;;;7.93;;
67248;SDS011;63247;54.300;18.592;2023-08-30T03:12:18;17.23;;;7.75;;
67248;SDS011;63247;54.300;18.592;2023-08-30T03:14:43;15.90;;;7.50;;
67248;SDS011;63247;54.300;18.592;2023-08-30T03:17:08;17.30;;;7.50;;
67248;SDS011;63247;54.300;18.592;2023-08-30T03:19:34;18.53;;;8.23;;
67248;SDS011;63247;54.300;18.592;2023-08-30T03:21:59;17.13;;;7.50;;
67248;SDS011;63247;54.300;18.592;2023-08-30T03:24:25;16.37;;;7.97;;
67248;SDS011;63247;54.300;18.592;2023-08-30T03:26:50;17.73;;;7.87;;
67248;SDS011;63247;54.300;18.592;2023-08-30T03:29:16;16.80;;;7.80;;
67248;SDS011;63247;54.300;18.592;2023-08-30T03:31:41;15.63;;;7.33;;
67248;SDS011;63247;54.300;18.592;2023-08-30T03:34:08;14.23;;;7.07;;
67248;SDS011;63247;54.300;18.592;2023-08-30T03:36:34;12.40;;;6.53;;
67248;SDS011;63247;54.300;18.592;2023-08-30T03:38:59;10.88;;;6.20;;
67248;SDS011;63247;54.300;18.592;2023-08-30T03:41:25;10.70;;;5.80;;
67248;SDS011;63247;54.300;18.592;2023-08-30T03:43:50;12.30;;;6.47;;
67248;SDS011;63247;54.300;18.592;2023-08-30T03:46:15;10.77;;;5.90;;
67248;SDS011;63247;54.300;18.592;2023-08-30T03:48:41;13.10;;;5.67;;
67248;SDS011;63247;54.300;18.592;2023-08-30T03:51:06;9.77;;;5.63;;
67248;SDS011;63247;54.300;18.592;2023-08-30T03:53:31;12.35;;;5.70;;
67248;SDS011;63247;54.300;18.592;2023-08-30T03:55:57;11.52;;;5.60;;
67248;SDS011;63247;54.300;18.592;2023-08-30T03:58:23;9.17;;;5.17;;
67248;SDS011;63247;54.300;18.592;2023-08-30T04:00:48;10.90;;;5.35;;
67248;SDS011;63247;54.300;18.592;2023-08-30T04:03:14;10.70;;;4.63;;
67248;SDS011;63247;54.300;18.592;2023-08-30T04:05:40;8.80;;;4.60;;
67248;SDS011;63247;54.300;18.592;2023-08-30T04:08:06;7.97;;;4.55;;
67248;SDS011;63247;54.300;18.592;2023-08-30T04:10:36;9.18;;;4.60;;
67248;SDS011;63247;54.300;18.592;2023-08-30T04:13:05;8.45;;;4.40;;
67248;SDS011;63247;54.300;18.592;2023-08-30T04:15:32;8.85;;;4.70;;
67248;SDS011;63247;54.300;18.592;2023-08-30T04:17:59;10.53;;;5.50;;
67248;SDS011;63247;54.300;18.592;2023-08-30T04:20:24;10.02;;;5.05;;
67248;SDS011;63247;54.300;18.592;2023-08-30T04:22:49;8.43;;;4.90;;
67248;SDS011;63247;54.300;18.592;2023-08-30T04:25:15;7.80;;;4.17;;
67248;SDS011;63247;54.300;18.592;2023-08-30T04:27:40;6.53;;;3.60;;
67248;SDS011;63247;54.300;18.592;2023-08-30T04:30:06;7.27;;;3.53;;
67248;SDS011;63247;54.300;18.592;2023-08-30T04:32:31;7.95;;;4.40;;
67248;SDS011;63247;54.300;18.592;2023-08-30T04:34:57;7.70;;;4.77;;
67248;SDS011;63247;54.300;18.592;2023-08-30T04:37:22;11.40;;;5.85;;
67248;SDS011;63247;54.300;18.592;2023-08-30T04:39:48;9.75;;;5.10;;
67248;SDS011;63247;54.300;18.592;2023-08-30T04:42:16;10.17;;;5.87;;
67248;SDS011;63247;54.300;18.592;2023-08-30T04:44:41;11.33;;;5.57;;
67248;SDS011;63247;54.300;18.592;2023-08-30T04:47:07;11.20;;;6.00;;
67248;SDS011;63247;54.300;18.592;2023-08-30T04:49:32;10.87;;;6.10;;
67248;SDS011;63247;54.300;18.592;2023-08-30T04:51:58;10.77;;;6.33;;
67248;SDS011;63247;54.300;18.592;2023-08-30T04:54:23;15.47;;;6.77;;
67248;SDS011;63247;54.300;18.592;2023-08-30T04:56:48;21.02;;;8.93;;
67248;SDS011;63247;54.300;18.592;2023-08-30T04:59:14;21.47;;;9.27;;
67248;SDS011;63247;54.300;18.592;2023-08-30T05:01:39;22.43;;;9.37;;
67248;SDS011;63247;54.300;18.592;2023-08-30T05:04:07;21.35;;;9.88;;
67248;SDS011;63247;54.300;18.592;2023-08-30T05:06:32;22.10;;;9.48;;
67248;SDS011;63247;54.300;18.592;2023-08-30T05:08:58;28.92;;;10.30;;
67248;SDS011;63247;54.300;18.592;2023-08-30T05:11:23;24.97;;;10.00;;
67248;SDS011;63247;54.300;18.592;2023-08-30T05:13:48;28.80;;;10.20;;
67248;SDS011;63247;54.300;18.592;2023-08-30T05:16:14;25.30;;;9.80;;
67248;SDS011;63247;54.300;18.592;2023-08-30T05:18:39;25.17;;;9.53;;
67248;SDS011;63247;54.300;18.592;2023-08-30T05:21:04;25.10;;;9.23;;
67248;SDS011;63247;54.300;18.592;2023-08-30T05:23:30;23.42;;;9.07;;
67248;SDS011;63247;54.300;18.592;2023-08-30T05:25:56;19.33;;;8.63;;
67248;SDS011;63247;54.300;18.592;2023-08-30T05:28:22;19.45;;;8.63;;
67248;SDS011;63247;54.300;18.592;2023-08-30T05:30:47;20.07;;;9.00;;
67248;SDS011;63247;54.300;18.592;2023-08-30T05:33:12;17.70;;;7.90;;
67248;SDS011;63247;54.300;18.592;2023-08-30T05:35:38;20.00;;;8.67;;
67248;SDS011;63247;54.300;18.592;2023-08-30T05:38:03;19.43;;;8.50;;
67248;SDS011;63247;54.300;18.592;2023-08-30T05:40:28;18.83;;;8.37;;
67248;SDS011;63247;54.300;18.592;2023-08-30T05:42:54;21.48;;;8.45;;
67248;SDS011;63247;54.300;18.592;2023-08-30T05:45:20;19.00;;;7.53;;
67248;SDS011;63247;54.300;18.592;2023-08-30T05:47:45;15.80;;;7.43;;
67248;SDS011;63247;54.300;18.592;2023-08-30T05:50:10;13.67;;;6.30;;
67248;SDS011;63247;54.300;18.592;2023-08-30T05:52:36;12.33;;;5.90;;
67248;SDS011;63247;54.300;18.592;2023-08-30T05:55:06;12.27;;;5.85;;
67248;SDS011;63247;54.300;18.592;2023-08-30T05:57:34;11.70;;;5.63;;
67248;SDS011;63247;54.300;18.592;2023-08-30T06:00:00;11.60;;;5.00;;
67248;SDS011;63247;54.300;18.592;2023-08-30T06:02:26;13.07;;;5.03;;
67248;SDS011;63247;54.300;18.592;2023-08-30T06:04:52;9.85;;;5.15;;
67248;SDS011;63247;54.300;18.592;2023-08-30T06:07:17;7.97;;;4.50;;
67248;SDS011;63247;54.300;18.592;2023-08-30T06:09:43;8.70;;;4.33;;
67248;SDS011;63247;54.300;18.592;2023-08-30T06:12:09;7.60;;;4.10;;
67248;SDS011;63247;54.300;18.592;2023-08-30T06:14:34;7.47;;;4.00;;
67248;SDS011;63247;54.300;18.592;2023-08-30T06:17:00;8.68;;;3.95;;
67248;SDS011;63247;54.300;18.592;2023-08-30T06:19:25;6.50;;;3.40;;
67248;SDS011;63247;54.300;18.592;2023-08-30T06:21:51;6.80;;;3.80;;
67248;SDS011;63247;54.300;18.592;2023-08-30T06:24:16;6.57;;;3.30;;
67248;SDS011;63247;54.300;18.592;2023-08-30T06:26:41;5.27;;;2.97;;
67248;SDS011;63247;54.300;18.592;2023-08-30T06:29:07;6.20;;;2.83;;
67248;SDS011;63247;54.300;18.592;2023-08-30T06:31:32;5.87;;;2.70;;
67248;SDS011;63247;54.300;18.592;2023-08-30T06:33:57;5.60;;;2.70;;
67248;SDS011;63247;54.300;18.592;2023-08-30T06:36:23;6.55;;;2.90;;
67248;SDS011;63247;54.300;18.592;2023-08-30T06:38:49;7.10;;;3.00;;
67248;SDS011;63247;54.300;18.592;2023-08-30T06:41:14;4.78;;;2.30;;
67248;SDS011;63247;54.300;18.592;2023-08-30T06:43:40;7.67;;;2.60;;
67248;SDS011;63247;54.300;18.592;2023-08-30T06:46:05;4.10;;;2.13;;
67248;SDS011;63247;54.300;18.592;2023-08-30T06:48:30;4.80;;;2.47;;
67248;SDS011;63247;54.300;18.592;2023-08-30T06:50:59;4.77;;;2.37;;
67248;SDS011;63247;54.300;18.592;2023-08-30T06:53:25;3.50;;;2.00;;
67248;SDS011;63247;54.300;18.592;2023-08-30T06:55:56;4.05;;;2.15;;
67248;SDS011;63247;54.300;18.592;2023-08-30T06:58:25;6.20;;;2.15;;
67248;SDS011;63247;54.300;18.592;2023-08-30T07:00:50;3.53;;;2.20;;
67248;SDS011;63247;54.300;18.592;2023-08-30T07:03:16;3.78;;;1.90;;
67248;SDS011;63247;54.300;18.592;2023-08-30T07:05:41;3.63;;;2.10;;
67248;SDS011;63247;54.300;18.592;2023-08-30T07:08:08;3.95;;;2.03;;
67248;SDS011;63247;54.300;18.592;2023-08-30T07:10:34;3.63;;;1.80;;
67248;SDS011;63247;54.300;18.592;2023-08-30T07:12:59;4.67;;;1.90;;
67248;SDS011;63247;54.300;18.592;2023-08-30T07:15:25;4.50;;;1.80;;
67248;SDS011;63247;54.300;18.592;2023-08-30T07:17:50;4.40;;;2.00;;
67248;SDS011;63247;54.300;18.592;2023-08-30T07:20:16;5.37;;;1.87;;
67248;SDS011;63247;54.300;18.592;2023-08-30T07:22:42;4.93;;;1.73;;
67248;SDS011;63247;54.300;18.592;2023-08-30T07:25:07;3.13;;;1.90;;
67248;SDS011;63247;54.300;18.592;2023-08-30T07:27:35;3.55;;;1.63;;
67248;SDS011;63247;54.300;18.592;2023-08-30T07:30:01;3.47;;;1.50;;
67248;SDS011;63247;54.300;18.592;2023-08-30T07:32:26;4.43;;;1.80;;
67248;SDS011;63247;54.300;18.592;2023-08-30T07:34:52;3.13;;;1.67;;
67248;SDS011;63247;54.300;18.592;2023-08-30T07:37:20;3.83;;;1.75;;
67248;SDS011;63247;54.300;18.592;2023-08-30T07:39:46;4.50;;;1.65;;
67248;SDS011;63247;54.300;18.592;2023-08-30T07:42:12;4.40;;;1.70;;
67248;SDS011;63247;54.300;18.592;2023-08-30T07:44:39;5.32;;;1.48;;
67248;SDS011;63247;54.300;18.592;2023-08-30T07:47:04;4.00;;;1.50;;
67248;SDS011;63247;54.300;18.592;2023-08-30T07:49:29;2.95;;;1.40;;
67248;SDS011;63247;54.300;18.592;2023-08-30T07:51:55;2.90;;;1.52;;
67248;SDS011;63247;54.300;18.592;2023-08-30T07:54:20;2.60;;;1.40;;
67248;SDS011;63247;54.300;18.592;2023-08-30T07:56:45;3.83;;;1.40;;
67248;SDS011;63247;54.300;18.592;2023-08-30T07:59:12;2.57;;;1.30;;
67248;SDS011;63247;54.300;18.592;2023-08-30T08:01:37;3.55;;;1.90;;
67248;SDS011;63247;54.300;18.592;2023-08-30T08:04:03;3.07;;;1.60;;
67248;SDS011;63247;54.300;18.592;2023-08-30T08:06:28;3.10;;;1.70;;
67248;SDS011;63247;54.300;18.592;2023-08-30T08:08:53;3.72;;;1.83;;
67248;SDS011;63247;54.300;18.592;2023-08-30T08:11:19;4.10;;;1.87;;
67248;SDS011;63247;54.300;18.592;2023-08-30T08:13:44;6.03;;;1.67;;
67248;SDS011;63247;54.300;18.592;2023-08-30T08:16:10;4.27;;;1.87;;
67248;SDS011;63247;54.300;18.592;2023-08-30T08:18:36;3.58;;;1.73;;
67248;SDS011;63247;54.300;18.592;2023-08-30T08:21:01;4.83;;;1.70;;
67248;SDS011;63247;54.300;18.592;2023-08-30T08:23:27;2.80;;;1.60;;
67248;SDS011;63247;54.300;18.592;2023-08-30T08:25:59;4.53;;;1.80;;
67248;SDS011;63247;54.300;18.592;2023-08-30T08:28:25;3.85;;;1.80;;
67248;SDS011;63247;54.300;18.592;2023-08-30T08:30:51;5.73;;;1.60;;
67248;SDS011;63247;54.300;18.592;2023-08-30T08:33:16;3.40;;;1.60;;
67248;SDS011;63247;54.300;18.592;2023-08-30T08:35:43;5.63;;;1.60;;
67248;SDS011;63247;54.300;18.592;2023-08-30T08:38:08;3.53;;;1.50;;
67248;SDS011;63247;54.300;18.592;2023-08-30T08:40:37;3.03;;;1.48;;
67248;SDS011;63247;54.300;18.592;2023-08-30T08:43:05;4.15;;;1.65;;
67248;SDS011;63247;54.300;18.592;2023-08-30T08:45:37;2.80;;;1.40;;
67248;SDS011;63247;54.300;18.592;2023-08-30T08:48:03;2.90;;;1.40;;
67248;SDS011;63247;54.300;18.592;2023-08-30T08:50:29;4.88;;;1.50;;
67248;SDS011;63247;54.300;18.592;2023-08-30T08:52:56;8.20;;;1.77;;
67248;SDS011;63247;54.300;18.592;2023-08-30T08:55:22;3.78;;;1.30;;
67248;SDS011;63247;54.300;18.592;2023-08-30T08:57:48;3.80;;;1.33;;
67248;SDS011;63247;54.300;18.592;2023-08-30T09:00:13;3.85;;;1.40;;
67248;SDS011;63247;54.300;18.592;2023-08-30T09:02:41;3.65;;;1.30;;
67248;SDS011;63247;54.300;18.592;2023-08-30T09:05:07;4.00;;;1.10;;
67248;SDS011;63247;54.300;18.592;2023-08-30T09:07:33;2.45;;;1.00;;
67248;SDS011;63247;54.300;18.592;2023-08-30T09:10:00;5.03;;;0.90;;
67248;SDS011;63247;54.300;18.592;2023-08-30T09:12:26;3.80;;;1.23;;
67248;SDS011;63247;54.300;18.592;2023-08-30T09:14:55;2.40;;;0.80;;
67248;SDS011;63247;54.300;18.592;2023-08-30T09:17:21;2.40;;;0.93;;
67248;SDS011;63247;54.300;18.592;2023-08-30T09:19:46;2.60;;;0.90;;
67248;SDS011;63247;54.300;18.592;2023-08-30T09:22:12;2.23;;;1.00;;
67248;SDS011;63247;54.300;18.592;2023-08-30T09:24:40;3.63;;;1.20;;
67248;SDS011;63247;54.300;18.592;2023-08-30T09:27:07;3.88;;;0.93;;
67248;SDS011;63247;54.300;18.592;2023-08-30T09:29:32;3.83;;;1.10;;
67248;SDS011;63247;54.300;18.592;2023-08-30T09:31:57;3.47;;;1.10;;
67248;SDS011;63247;54.300;18.592;2023-08-30T09:34:23;5.10;;;1.10;;
67248;SDS011;63247;54.300;18.592;2023-08-30T09:36:50;2.85;;;1.20;;
67248;SDS011;63247;54.300;18.592;2023-08-30T09:39:16;3.03;;;1.40;;
67248;SDS011;63247;54.300;18.592;2023-08-30T09:41:45;3.50;;;1.10;;
67248;SDS011;63247;54.300;18.592;2023-08-30T09:46:45;2.97;;;1.10;;
67248;SDS011;63247;54.300;18.592;2023-08-30T09:49:14;4.15;;;1.33;;
67248;SDS011;63247;54.300;18.592;2023-08-30T09:51:41;2.77;;;1.20;;
67248;SDS011;63247;54.300;18.592;2023-08-30T09:54:17;4.60;;;1.50;;
67248;SDS011;63247;54.300;18.592;2023-08-30T09:56:44;4.47;;;1.48;;
67248;SDS011;63247;54.300;18.592;2023-08-30T09:59:11;6.95;;;1.80;;
67248;SDS011;63247;54.300;18.592;2023-08-30T10:01:37;3.57;;;1.60;;
67248;SDS011;63247;54.300;18.592;2023-08-30T10:04:04;3.22;;;1.60;;
67248;SDS011;63247;54.300;18.592;2023-08-30T10:06:31;3.47;;;1.50;;
67248;SDS011;63247;54.300;18.592;2023-08-30T10:08:58;4.50;;;1.48;;
67248;SDS011;63247;54.300;18.592;2023-08-30T10:11:24;3.00;;;1.20;;
67248;SDS011;63247;54.300;18.592;2023-08-30T10:13:54;3.90;;;1.20;;
67248;SDS011;63247;54.300;18.592;2023-08-30T10:16:20;2.42;;;1.13;;
67248;SDS011;63247;54.300;18.592;2023-08-30T10:18:50;3.83;;;1.23;;
67248;SDS011;63247;54.300;18.592;2023-08-30T10:21:19;4.30;;;1.30;;
67248;SDS011;63247;54.300;18.592;2023-08-30T10:23:46;4.18;;;1.30;;
67248;SDS011;63247;54.300;18.592;2023-08-30T10:26:14;3.57;;;1.40;;
67248;SDS011;63247;54.300;18.592;2023-08-30T10:28:41;6.10;;;1.30;;
67248;SDS011;63247;54.300;18.592;2023-08-30T10:31:07;3.33;;;1.55;;
67248;SDS011;63247;54.300;18.592;2023-08-30T10:33:43;4.68;;;1.70;;
67248;SDS011;63247;54.300;18.592;2023-08-30T10:36:19;3.42;;;1.35;;
67248;SDS011;63247;54.300;18.592;2023-08-30T10:38:48;5.03;;;1.60;;
67248;SDS011;63247;54.300;18.592;2023-08-30T10:41:18;6.20;;;1.73;;
67248;SDS011;63247;54.300;18.592;2023-08-30T10:43:48;4.45;;;1.73;;
67248;SDS011;63247;54.300;18.592;2023-08-30T10:46:16;2.67;;;1.45;;
67248;SDS011;63247;54.300;18.592;2023-08-30T10:48:41;4.30;;;1.70;;
67248;SDS011;63247;54.300;18.592;2023-08-30T10:51:20;2.92;;;1.30;;
67248;SDS011;63247;54.300;18.592;2023-08-30T10:53:57;4.22;;;1.23;;
67248;SDS011;63247;54.300;18.592;2023-08-30T10:56:27;4.00;;;1.30;;
67248;SDS011;63247;54.300;18.592;2023-08-30T10:58:53;4.50;;;1.35;;
67248;SDS011;63247;54.300;18.592;2023-08-30T11:01:19;3.50;;;1.50;;
67248;SDS011;63247;54.300;18.592;2023-08-30T11:03:45;5.13;;;1.42;;
67248;SDS011;63247;54.300;18.592;2023-08-30T11:06:13;3.57;;;1.20;;
67248;SDS011;63247;54.300;18.592;2023-08-30T11:08:39;3.38;;;1.30;;
67248;SDS011;63247;54.300;18.592;2023-08-30T11:11:06;2.72;;;1.38;;
67248;SDS011;63247;54.300;18.592;2023-08-30T11:13:33;3.33;;;1.20;;
67248;SDS011;63247;54.300;18.592;2023-08-30T11:16:00;3.30;;;1.40;;
67248;SDS011;63247;54.300;18.592;2023-08-30T11:18:26;3.97;;;1.30;;
67248;SDS011;63247;54.300;18.592;2023-08-30T11:21:00;4.50;;;1.60;;
67248;SDS011;63247;54.300;18.592;2023-08-30T11:23:27;4.33;;;1.50;;
67248;SDS011;63247;54.300;18.592;2023-08-30T11:25:53;3.55;;;1.67;;
67248;SDS011;63247;54.300;18.592;2023-08-30T11:28:24;2.77;;;1.43;;
67248;SDS011;63247;54.300;18.592;2023-08-30T11:30:54;3.78;;;1.40;;
67248;SDS011;63247;54.300;18.592;2023-08-30T11:33:23;3.97;;;1.50;;
67248;SDS011;63247;54.300;18.592;2023-08-30T11:35:49;3.40;;;1.70;;
67248;SDS011;63247;54.300;18.592;2023-08-30T11:38:17;4.68;;;1.58;;
67248;SDS011;63247;54.300;18.592;2023-08-30T11:40:43;2.80;;;1.38;;
67248;SDS011;63247;54.300;18.592;2023-08-30T11:43:08;3.77;;;1.40;;
67248;SDS011;63247;54.300;18.592;2023-08-30T11:45:35;3.50;;;1.40;;
67248;SDS011;63247;54.300;18.592;2023-08-30T11:48:00;3.73;;;1.30;;
67248;SDS011;63247;54.300;18.592;2023-08-30T11:50:26;3.85;;;1.30;;
67248;SDS011;63247;54.300;18.592;2023-08-30T11:52:52;3.42;;;1.20;;
67248;SDS011;63247;54.300;18.592;2023-08-30T11:55:18;3.30;;;1.23;;
67248;SDS011;63247;54.300;18.592;2023-08-30T11:57:48;3.50;;;1.30;;
67248;SDS011;63247;54.300;18.592;2023-08-30T12:00:14;2.20;;;0.90;;
67248;SDS011;63247;54.300;18.592;2023-08-30T12:02:39;2.00;;;0.90;;
67248;SDS011;63247;54.300;18.592;2023-08-30T12:05:05;3.10;;;0.83;;
67248;SDS011;63247;54.300;18.592;2023-08-30T12:07:36;4.13;;;1.00;;
67248;SDS011;63247;54.300;18.592;2023-08-30T12:10:05;4.25;;;1.00;;
67248;SDS011;63247;54.300;18.592;2023-08-30T12:12:31;6.95;;;1.10;;
67248;SDS011;63247;54.300;18.592;2023-08-30T12:14:56;4.43;;;0.90;;
67248;SDS011;63247;54.300;18.592;2023-08-30T12:17:22;3.50;;;1.07;;
67248;SDS011;63247;54.300;18.592;2023-08-30T12:20:06;2.20;;;0.80;;
67248;SDS011;63247;54.300;18.592;2023-08-30T12:22:39;4.93;;;1.30;;
67248;SDS011;63247;54.300;18.592;2023-08-30T12:25:25;3.53;;;1.00;;
67248;SDS011;63247;54.300;18.592;2023-08-30T12:27:51;3.05;;;1.15;;
67248;SDS011;63247;54.300;18.592;2023-08-30T12:30:17;2.80;;;1.10;;
67248;SDS011;63247;54.300;18.592;2023-08-30T12:32:44;2.95;;;1.20;;
67248;SDS011;63247;54.300;18.592;2023-08-30T12:35:13;3.45;;;1.10;;
67248;SDS011;63247;54.300;18.592;2023-08-30T12:37:38;4.03;;;1.10;;
67248;SDS011;63247;54.300;18.592;2023-08-30T12:40:04;3.20;;;1.20;;
67248;SDS011;63247;54.300;18.592;2023-08-30T12:42:31;7.40;;;1.30;;
67248;SDS011;63247;54.300;18.592;2023-08-30T12:44:56;8.67;;;1.97;;
67248;SDS011;63247;54.300;18.592;2023-08-30T12:47:22;4.37;;;1.17;;
67248;SDS011;63247;54.300;18.592;2023-08-30T12:49:47;2.97;;;1.40;;
67248;SDS011;63247;54.300;18.592;2023-08-30T12:52:12;4.13;;;1.27;;
67248;SDS011;63247;54.300;18.592;2023-08-30T12:54:38;2.92;;;1.35;;
67248;SDS011;63247;54.300;18.592;2023-08-30T12:57:03;5.23;;;1.60;;
67248;SDS011;63247;54.300;18.592;2023-08-30T12:59:29;3.40;;;1.50;;
67248;SDS011;63247;54.300;18.592;2023-08-30T13:01:54;3.67;;;1.60;;
67248;SDS011;63247;54.300;18.592;2023-08-30T13:04:19;3.63;;;1.50;;
67248;SDS011;63247;54.300;18.592;2023-08-30T13:06:45;4.47;;;1.48;;
67248;SDS011;63247;54.300;18.592;2023-08-30T13:09:10;3.03;;;1.40;;
67248;SDS011;63247;54.300;18.592;2023-08-30T13:11:36;3.27;;;1.57;;
67248;SDS011;63247;54.300;18.592;2023-08-30T13:14:01;2.93;;;1.40;;
67248;SDS011;63247;54.300;18.592;2023-08-30T13:16:27;2.90;;;1.50;;
67248;SDS011;63247;54.300;18.592;2023-08-30T13:18:52;4.00;;;1.50;;
67248;SDS011;63247;54.300;18.592;2023-08-30T13:21:18;3.00;;;1.50;;
67248;SDS011;63247;54.300;18.592;2023-08-30T13:23:43;4.07;;;1.53;;
67248;SDS011;63247;54.300;18.592;2023-08-30T13:26:08;4.50;;;1.60;;
67248;SDS011;63247;54.300;18.592;2023-08-30T13:28:34;4.25;;;1.60;;
67248;SDS011;63247;54.300;18.592;2023-08-30T13:31:00;2.57;;;1.30;;
67248;SDS011;63247;54.300;18.592;2023-08-30T13:33:25;4.67;;;1.60;;
67248;SDS011;63247;54.300;18.592;2023-08-30T13:35:51;4.80;;;1.50;;
67248;SDS011;63247;54.300;18.592;2023-08-30T13:38:17;3.47;;;1.50;;
67248;SDS011;63247;54.300;18.592;2023-08-30T13:40:43;4.65;;;1.50;;
67248;SDS011;63247;54.300;18.592;2023-08-30T13:43:08;5.22;;;1.58;;
67248;SDS011;63247;54.300;18.592;2023-08-30T13:45:34;4.93;;;1.60;;
67248;SDS011;63247;54.300;18.592;2023-08-30T13:47:59;6.47;;;1.80;;
67248;SDS011;63247;54.300;18.592;2023-08-30T13:50:25;3.55;;;1.85;;
67248;SDS011;63247;54.300;18.592;2023-08-30T13:52:55;3.83;;;1.70;;
67248;SDS011;63247;54.300;18.592;2023-08-30T13:55:23;4.65;;;1.50;;
67248;SDS011;63247;54.300;18.592;2023-08-30T13:57:49;5.03;;;1.60;;
67248;SDS011;63247;54.300;18.592;2023-08-30T14:00:15;3.67;;;1.35;;
67248;SDS011;63247;54.300;18.592;2023-08-30T14:02:40;4.05;;;1.20;;
67248;SDS011;63247;54.300;18.592;2023-08-30T14:05:06;6.10;;;1.50;;
67248;SDS011;63247;54.300;18.592;2023-08-30T14:07:32;2.47;;;1.20;;
67248;SDS011;63247;54.300;18.592;2023-08-30T14:09:57;3.10;;;1.20;;
67248;SDS011;63247;54.300;18.592;2023-08-30T14:12:23;2.40;;;1.20;;
67248;SDS011;63247;54.300;18.592;2023-08-30T14:14:48;2.95;;;1.40;;
67248;SDS011;63247;54.300;18.592;2023-08-30T14:17:14;2.60;;;1.25;;
67248;SDS011;63247;54.300;18.592;2023-08-30T14:19:39;3.33;;;1.23;;
67248;SDS011;63247;54.300;18.592;2023-08-30T14:22:05;6.10;;;1.20;;
67248;SDS011;63247;54.300;18.592;2023-08-30T14:24:31;2.53;;;1.20;;
67248;SDS011;63247;54.300;18.592;2023-08-30T14:26:57;3.50;;;1.30;;